createdAt,value
2022-11-14T00:01:10.889Z,100.00
2022-11-14T00:03:37.951Z,100.00
2022-11-14T00:06:07.184Z,100.00
2022-11-14T00:08:34.226Z,100.00
2022-11-14T00:11:01.595Z,100.00
2022-11-14T00:13:28.404Z,100.00
2022-11-14T00:15:55.470Z,100.00
2022-11-14T00:18:23.093Z,100.00
2022-11-14T00:20:51.739Z,100.00
2022-11-14T00:23:19.424Z,100.00
2022-11-14T00:25:46.829Z,100.00
2022-11-14T00:28:14.675Z,100.00
2022-11-14T00:30:41.441Z,100.00
2022-11-14T00:33:08.476Z,100.00
2022-11-14T00:35:35.425Z,100.00
2022-11-14T00:38:02.463Z,100.00
2022-11-14T00:40:29.217Z,100.00
2022-11-14T00:42:56.132Z,100.00
2022-11-14T00:45:23.245Z,100.00
2022-11-14T00:47:50.108Z,100.00
2022-11-14T00:50:17.365Z,100.00
2022-11-14T00:52:44.398Z,100.00
2022-11-14T00:55:11.211Z,100.00
2022-11-14T00:57:38.226Z,100.00
2022-11-14T01:00:06.182Z,100.00
2022-11-14T01:02:33.228Z,100.00
2022-11-14T01:05:00.622Z,100.00
2022-11-14T01:07:27.408Z,100.00
2022-11-14T01:09:54.447Z,100.00
2022-11-14T01:12:21.214Z,100.00
2022-11-14T01:14:48.414Z,100.00
2022-11-14T01:17:15.198Z,100.00
2022-11-14T01:19:43.339Z,100.00
2022-11-14T01:22:10.091Z,100.00
2022-11-14T01:24:37.167Z,100.00
2022-11-14T01:27:03.929Z,100.00
2022-11-14T01:29:30.956Z,100.00
2022-11-14T01:31:57.749Z,100.00
2022-11-14T01:34:24.586Z,100.00
2022-11-14T01:36:52.287Z,100.00
2022-11-14T01:39:19.025Z,100.00
2022-11-14T01:41:46.095Z,100.00
2022-11-14T01:44:15.674Z,100.00
2022-11-14T01:46:47.643Z,100.00
2022-11-14T01:49:30.946Z,100.00
2022-11-14T01:52:07.185Z,100.00
2022-11-14T01:54:38.923Z,100.00
2022-11-14T01:57:07.986Z,100.00
2022-11-14T01:59:39.950Z,100.00
2022-11-14T02:02:20.146Z,100.00
2022-11-14T02:05:03.018Z,100.00
2022-11-14T02:07:33.655Z,100.00
2022-11-14T02:10:05.296Z,100.00
2022-11-14T02:12:32.761Z,100.00
2022-11-14T02:15:00.834Z,100.00
2022-11-14T02:17:30.087Z,100.00
2022-11-14T02:20:05.249Z,100.00
2022-11-14T02:22:32.793Z,100.00
2022-11-14T02:24:59.562Z,100.00
2022-11-14T02:27:26.774Z,100.00
2022-11-14T02:29:53.516Z,100.00
2022-11-14T02:32:20.268Z,100.00
2022-11-14T02:34:47.369Z,100.00
2022-11-14T02:37:14.230Z,100.00
2022-11-14T02:39:41.035Z,100.00
2022-11-14T02:42:08.036Z,100.00
2022-11-14T02:44:34.790Z,100.00
2022-11-14T02:47:01.897Z,100.00
2022-11-14T02:49:28.684Z,100.00
2022-11-14T02:51:55.691Z,100.00
2022-11-14T02:54:22.451Z,100.00
2022-11-14T02:56:49.264Z,100.00
2022-11-14T02:59:16.312Z,100.00
2022-11-14T03:01:43.130Z,100.00
2022-11-14T03:04:09.988Z,100.00
2022-11-14T03:06:37.166Z,100.00
2022-11-14T03:09:04.093Z,100.00
2022-11-14T03:11:31.258Z,100.00
2022-11-14T03:13:59.971Z,100.00
2022-11-14T03:16:26.974Z,100.00
2022-11-14T03:18:53.823Z,100.00
2022-11-14T03:21:22.752Z,100.00
2022-11-14T03:23:50.073Z,100.00
2022-11-14T03:26:16.838Z,100.00
2022-11-14T03:28:43.675Z,100.00
2022-11-14T03:31:12.479Z,100.00
2022-11-14T03:33:39.406Z,100.00
2022-11-14T03:36:07.136Z,100.00
2022-11-14T03:38:34.517Z,100.00
2022-11-14T03:41:01.629Z,100.00
2022-11-14T03:43:33.978Z,100.00
2022-11-14T03:46:02.004Z,100.00
2022-11-14T03:48:30.368Z,100.00
2022-11-14T03:50:57.794Z,100.00
2022-11-14T03:53:24.947Z,100.00
2022-11-14T03:55:52.648Z,100.00
2022-11-14T03:58:22.744Z,100.00
2022-11-14T04:00:49.579Z,100.00
2022-11-14T04:03:16.645Z,100.00
2022-11-14T04:05:46.509Z,100.00
2022-11-14T04:08:13.238Z,100.00
2022-11-14T04:10:41.403Z,100.00
2022-11-14T04:13:08.858Z,100.00
2022-11-14T04:15:35.898Z,100.00
2022-11-14T04:18:02.846Z,100.00
2022-11-14T04:20:30.076Z,100.00
2022-11-14T04:22:56.860Z,100.00
2022-11-14T04:25:23.916Z,100.00
2022-11-14T04:27:50.657Z,100.00
2022-11-14T04:30:17.841Z,100.00
2022-11-14T04:32:49.157Z,100.00
2022-11-14T04:35:16.369Z,100.00
2022-11-14T04:37:43.220Z,100.00
2022-11-14T04:40:10.637Z,100.00
2022-11-14T04:42:37.409Z,100.00
2022-11-14T04:45:04.990Z,100.00
2022-11-14T04:47:31.765Z,100.00
2022-11-14T04:49:58.911Z,100.00
2022-11-14T04:52:25.703Z,100.00
2022-11-14T04:54:52.699Z,100.00
2022-11-14T04:57:19.447Z,100.00
2022-11-14T04:59:46.165Z,100.00
2022-11-14T05:02:13.200Z,100.00
2022-11-14T05:04:39.933Z,100.00
2022-11-14T05:07:06.992Z,100.00
2022-11-14T05:09:33.778Z,100.00
2022-11-14T05:12:00.872Z,100.00
2022-11-14T05:14:27.620Z,100.00
2022-11-14T05:16:54.667Z,100.00
2022-11-14T05:19:21.399Z,100.00
2022-11-14T05:21:48.486Z,100.00
2022-11-14T05:24:15.313Z,100.00
2022-11-14T05:26:42.339Z,100.00
2022-11-14T05:29:09.069Z,100.00
2022-11-14T05:31:35.844Z,100.00
2022-11-14T05:34:02.875Z,100.00
2022-11-14T05:36:29.612Z,100.00
2022-11-14T05:38:56.672Z,100.00
2022-11-14T05:41:23.437Z,100.00
2022-11-14T05:43:50.441Z,100.00
2022-11-14T05:46:17.478Z,100.00
2022-11-14T05:48:44.541Z,100.00
2022-11-14T05:51:12.995Z,100.00
2022-11-14T05:53:41.067Z,100.00
2022-11-14T05:56:11.594Z,100.00
2022-11-14T05:58:39.522Z,100.00
2022-11-14T06:01:09.569Z,100.00
2022-11-14T06:03:39.051Z,100.00
2022-11-14T06:06:07.639Z,100.00
2022-11-14T06:08:35.325Z,100.00
2022-11-14T06:11:28.395Z,100.00
2022-11-14T06:13:55.479Z,100.00
2022-11-14T06:16:22.273Z,100.00
2022-11-14T06:18:49.311Z,100.00
2022-11-14T06:21:19.205Z,100.00
2022-11-14T06:23:47.345Z,100.00
2022-11-14T06:26:25.633Z,100.00
2022-11-14T06:28:53.575Z,100.00
2022-11-14T06:31:21.409Z,100.00
2022-11-14T06:33:48.986Z,100.00
2022-11-14T06:36:16.173Z,100.00
2022-11-14T06:38:43.603Z,100.00
2022-11-14T06:41:16.301Z,100.00
2022-11-14T06:43:48.233Z,100.00
2022-11-14T06:46:20.168Z,100.00
2022-11-14T06:48:48.385Z,100.00
2022-11-14T06:51:16.906Z,100.00
2022-11-14T06:53:44.043Z,100.00
2022-11-14T06:56:13.572Z,100.00
2022-11-14T06:58:43.886Z,100.00
2022-11-14T07:01:19.721Z,100.00
2022-11-14T07:03:47.480Z,100.00
2022-11-14T07:06:21.142Z,100.00
2022-11-14T07:08:47.874Z,100.00
2022-11-14T07:11:23.790Z,100.00
2022-11-14T07:13:51.124Z,100.00
2022-11-14T07:16:19.002Z,100.00
2022-11-14T07:18:46.094Z,100.00
2022-11-14T07:21:16.129Z,100.00
2022-11-14T07:23:43.407Z,100.00
2022-11-14T07:26:11.795Z,100.00
2022-11-14T07:28:42.050Z,100.00
2022-11-14T07:31:14.415Z,100.00
2022-11-14T07:33:42.367Z,100.00
2022-11-14T07:36:10.796Z,100.00
2022-11-14T07:38:38.168Z,100.00
2022-11-14T07:41:10.779Z,100.00
2022-11-14T07:43:37.862Z,100.00
2022-11-14T07:46:07.658Z,100.00
2022-11-14T07:48:34.692Z,100.00
2022-11-14T07:51:03.609Z,100.00
2022-11-14T07:53:31.272Z,100.00
2022-11-14T07:56:02.782Z,100.00
2022-11-14T07:58:29.738Z,100.00
2022-11-14T08:01:01.566Z,100.00
2022-11-14T08:03:28.698Z,100.00
2022-11-14T08:06:06.785Z,100.00
2022-11-14T08:08:33.832Z,100.00
2022-11-14T08:11:01.852Z,100.00
2022-11-14T08:13:32.589Z,100.00
2022-11-14T08:16:09.166Z,100.00
2022-11-14T08:18:38.985Z,100.00
2022-11-14T08:21:06.499Z,100.00
2022-11-14T08:23:33.227Z,100.00
2022-11-14T08:26:00.387Z,100.00
2022-11-14T08:28:27.911Z,100.00
2022-11-14T08:31:05.398Z,100.00
2022-11-14T08:33:32.638Z,100.00
2022-11-14T08:36:03.848Z,100.00
2022-11-14T08:38:32.131Z,100.00
2022-11-14T08:41:03.420Z,100.00
2022-11-14T08:43:31.174Z,100.00
2022-11-14T08:46:02.932Z,100.00
2022-11-14T08:48:30.911Z,100.00
2022-11-14T08:51:02.155Z,100.00
2022-11-14T08:53:29.063Z,100.00
2022-11-14T08:55:56.177Z,100.00
2022-11-14T08:58:22.925Z,100.00
2022-11-14T09:00:51.929Z,100.00
2022-11-14T09:03:19.098Z,100.00
2022-11-14T09:05:52.174Z,100.00
2022-11-14T09:08:19.102Z,100.00
2022-11-14T09:10:46.104Z,100.00
2022-11-14T09:13:12.831Z,100.00
2022-11-14T09:15:39.866Z,100.00
2022-11-14T09:18:06.968Z,100.00
2022-11-14T09:20:38.821Z,100.00
2022-11-14T09:23:07.044Z,100.00
2022-11-14T09:25:33.832Z,100.00
2022-11-14T09:28:04.890Z,100.00
2022-11-14T09:30:31.651Z,100.00
2022-11-14T09:33:10.056Z,100.00
2022-11-14T09:35:38.418Z,100.00
2022-11-14T09:38:10.546Z,100.00
2022-11-14T09:41:08.878Z,100.00
2022-11-14T09:43:46.246Z,100.00
2022-11-14T09:46:24.587Z,100.00
2022-11-14T09:48:53.426Z,100.00
2022-11-14T09:51:23.870Z,99.37
2022-11-14T09:54:15.588Z,97.33
2022-11-14T09:56:42.363Z,95.87
2022-11-14T09:59:11.837Z,97.86
2022-11-14T10:02:01.719Z,94.98
2022-11-14T10:04:48.362Z,93.72
2022-11-14T10:07:34.942Z,91.51
2022-11-14T10:10:34.409Z,91.31
2022-11-14T10:13:26.032Z,93.50
2022-11-14T10:16:02.613Z,90.34
2022-11-14T10:18:41.764Z,90.63
2022-11-14T10:21:27.487Z,88.72
2022-11-14T10:24:06.509Z,89.15
2022-11-14T10:26:38.543Z,89.20
2022-11-14T10:29:17.457Z,86.10
2022-11-14T10:32:10.668Z,86.63
2022-11-14T10:34:48.208Z,87.11
2022-11-14T10:37:40.734Z,85.44
2022-11-14T10:40:22.270Z,86.92
2022-11-14T10:42:57.973Z,85.09
2022-11-14T10:45:51.078Z,84.58
2022-11-14T10:48:30.956Z,84.68
2022-11-14T10:51:01.807Z,83.43
2022-11-14T10:53:31.657Z,82.20
2022-11-14T10:56:04.643Z,84.45
2022-11-14T10:58:42.017Z,85.17
2022-11-14T11:01:37.740Z,83.25
2022-11-14T11:04:26.560Z,83.20
2022-11-14T11:06:57.847Z,85.57
2022-11-14T11:09:46.359Z,86.05
2022-11-14T11:12:22.848Z,86.60
2022-11-14T11:15:15.578Z,86.89
2022-11-14T11:18:06.370Z,89.40
2022-11-14T11:20:42.030Z,89.37
2022-11-14T11:23:11.508Z,89.04
2022-11-14T11:25:40.135Z,91.20
2022-11-14T11:28:18.507Z,90.11
2022-11-14T11:30:56.838Z,92.10
2022-11-14T11:33:29.794Z,92.64
2022-11-14T11:35:59.546Z,92.96
2022-11-14T11:38:29.364Z,93.75
2022-11-14T11:44:17.088Z,94.39
2022-11-14T11:46:44.598Z,87.43
2022-11-14T11:49:23.896Z,88.06
2022-11-14T11:51:55.196Z,85.99
2022-11-14T11:54:28.608Z,84.84
2022-11-14T11:57:01.538Z,84.46
2022-11-14T11:59:41.529Z,84.53
2022-11-14T12:02:25.500Z,84.73
2022-11-14T12:04:55.668Z,83.28
2022-11-14T12:07:32.914Z,84.85
2022-11-14T12:10:11.325Z,87.17
2022-11-14T12:12:44.239Z,87.29
2022-11-14T12:15:16.871Z,84.53
2022-11-14T12:18:17.408Z,84.37
2022-11-14T12:20:50.115Z,86.07
2022-11-14T12:23:17.060Z,86.61
2022-11-14T12:25:55.577Z,84.98
2022-11-14T12:28:49.844Z,86.38
2022-11-14T12:31:17.570Z,85.51
2022-11-14T12:33:53.740Z,87.21
2022-11-14T12:36:31.871Z,87.82
2022-11-14T12:39:00.606Z,86.35
2022-11-14T12:41:31.289Z,86.22
2022-11-14T12:44:27.478Z,87.07
2022-11-14T12:47:03.263Z,88.06
2022-11-14T12:49:59.112Z,87.39
2022-11-14T12:52:40.744Z,86.78
2022-11-14T12:55:30.809Z,88.05
2022-11-14T12:58:31.347Z,87.94
2022-11-14T13:01:10.954Z,87.66
2022-11-14T13:03:46.720Z,88.37
2022-11-14T13:06:26.922Z,88.23
2022-11-14T13:09:20.477Z,87.64
2022-11-14T13:12:07.142Z,87.82
2022-11-14T13:15:11.215Z,87.76
2022-11-14T13:17:57.693Z,88.35
2022-11-14T13:20:55.416Z,87.94
2022-11-14T13:23:25.221Z,87.67
2022-11-14T13:26:10.199Z,86.62
2022-11-14T13:28:37.145Z,87.16
2022-11-14T13:31:15.873Z,87.01
2022-11-14T13:33:45.384Z,87.62
2022-11-14T13:36:30.940Z,87.42
2022-11-14T13:39:10.168Z,87.66
2022-11-14T13:41:55.654Z,86.39
2022-11-14T13:44:47.014Z,84.66
2022-11-14T13:47:25.696Z,86.46
2022-11-14T13:49:58.465Z,85.94
2022-11-14T13:52:32.118Z,86.25
2022-11-14T13:55:00.574Z,85.52
2022-11-14T13:57:57.272Z,85.07
2022-11-14T14:00:24.336Z,85.17
2022-11-14T14:03:20.189Z,85.69
2022-11-14T14:06:05.983Z,86.56
2022-11-14T14:08:52.890Z,87.34
2022-11-14T14:11:43.168Z,87.63
2022-11-14T14:14:47.489Z,87.19
2022-11-14T14:17:22.621Z,88.56
2022-11-14T14:20:26.626Z,89.50
2022-11-14T14:23:12.344Z,89.09
2022-11-14T14:26:06.639Z,90.31
2022-11-14T14:28:48.735Z,90.34
2022-11-14T14:31:20.091Z,91.79
2022-11-14T14:33:48.486Z,92.57
2022-11-14T14:36:22.003Z,91.93
2022-11-14T14:38:49.555Z,91.91
2022-11-14T14:41:18.986Z,92.27
2022-11-14T14:43:55.382Z,92.62
2022-11-14T14:46:33.448Z,92.75
2022-11-14T14:49:04.735Z,92.20
2022-11-14T14:51:34.815Z,93.06
2022-11-14T14:54:02.362Z,93.96
2022-11-14T14:56:29.260Z,93.69
2022-11-14T14:58:56.552Z,94.93
2022-11-14T15:01:33.023Z,94.70
2022-11-14T15:04:06.955Z,94.50
2022-11-14T15:06:36.506Z,93.38
2022-11-14T15:09:16.986Z,94.79
2022-11-14T15:11:46.466Z,95.44
2022-11-14T15:14:17.827Z,96.43
2022-11-14T15:16:49.896Z,97.27
2022-11-14T15:19:21.342Z,97.60
2022-11-14T15:22:21.598Z,99.08
2022-11-14T15:25:24.255Z,100.00
2022-11-14T15:27:54.462Z,100.00
2022-11-14T15:30:34.804Z,100.00
2022-11-14T15:33:04.587Z,100.00
2022-11-14T15:35:34.431Z,100.00
2022-11-14T15:38:42.623Z,100.00
2022-11-14T15:41:20.434Z,100.00
2022-11-14T15:44:02.031Z,100.00
2022-11-14T15:46:35.606Z,100.00
2022-11-14T15:49:15.144Z,100.00
2022-11-14T15:51:48.146Z,100.00
2022-11-14T15:54:34.642Z,100.00
2022-11-14T15:57:11.756Z,100.00
2022-11-14T15:59:39.018Z,100.00
2022-11-14T16:02:46.059Z,100.00
2022-11-14T16:05:15.647Z,100.00
2022-11-14T16:07:43.319Z,100.00
2022-11-14T16:10:27.858Z,100.00
2022-11-14T16:12:54.896Z,100.00
2022-11-14T16:15:22.276Z,100.00
2022-11-14T16:17:50.530Z,100.00
2022-11-14T16:20:23.070Z,100.00
2022-11-14T16:22:50.858Z,100.00
2022-11-14T16:25:25.845Z,100.00
2022-11-14T16:27:53.918Z,100.00
2022-11-14T16:30:22.995Z,100.00
2022-11-14T16:32:51.926Z,100.00
2022-11-14T16:35:21.062Z,100.00
2022-11-14T16:37:48.666Z,100.00
2022-11-14T16:40:27.862Z,100.00
2022-11-14T16:42:56.500Z,100.00
2022-11-14T16:45:24.140Z,100.00
2022-11-14T16:47:51.329Z,100.00
2022-11-14T16:50:19.536Z,100.00
2022-11-14T16:52:46.805Z,100.00
2022-11-14T16:55:13.653Z,100.00
2022-11-14T16:57:41.045Z,100.00
2022-11-14T17:00:10.772Z,100.00
2022-11-14T17:02:40.028Z,100.00
2022-11-14T17:05:07.067Z,100.00
2022-11-14T17:07:34.133Z,100.00
2022-11-14T17:10:01.072Z,100.00
2022-11-14T17:12:28.427Z,100.00
2022-11-14T17:14:55.286Z,100.00
2022-11-14T17:17:22.393Z,100.00
2022-11-14T17:19:49.467Z,100.00
2022-11-14T17:22:17.993Z,100.00
2022-11-14T17:24:44.880Z,100.00
2022-11-14T17:27:13.036Z,100.00
2022-11-14T17:29:40.144Z,100.00
2022-11-14T17:32:07.235Z,100.00
2022-11-14T17:34:34.083Z,100.00
2022-11-14T17:37:01.151Z,100.00
2022-11-14T17:39:28.023Z,100.00
2022-11-14T17:41:55.174Z,100.00
2022-11-14T17:44:21.896Z,100.00
2022-11-14T17:46:49.082Z,100.00
2022-11-14T17:49:15.793Z,100.00
2022-11-14T17:51:42.890Z,100.00
2022-11-14T17:54:09.823Z,100.00
2022-11-14T17:56:41.169Z,100.00
2022-11-14T17:59:14.036Z,100.00
2022-11-14T18:01:41.098Z,100.00
2022-11-14T18:04:07.853Z,100.00
2022-11-14T18:06:34.905Z,100.00
2022-11-14T18:09:05.020Z,100.00
2022-11-14T18:11:32.599Z,100.00
2022-11-14T18:13:59.414Z,100.00
2022-11-14T18:16:39.296Z,100.00
2022-11-14T18:19:13.259Z,100.00
2022-11-14T18:21:43.134Z,100.00
2022-11-14T18:24:12.586Z,100.00
2022-11-14T18:26:39.608Z,100.00
2022-11-14T18:29:06.378Z,100.00
2022-11-14T18:31:33.392Z,100.00
2022-11-14T18:34:02.659Z,100.00
2022-11-14T18:36:29.946Z,100.00
2022-11-14T18:38:58.073Z,100.00
2022-11-14T18:41:25.125Z,100.00
2022-11-14T18:43:58.329Z,100.00
2022-11-14T18:46:26.622Z,100.00
2022-11-14T18:48:56.992Z,100.00
2022-11-14T18:51:28.131Z,100.00
2022-11-14T18:53:57.703Z,100.00
2022-11-14T18:56:25.536Z,100.00
2022-11-14T18:58:54.553Z,100.00
2022-11-14T19:01:26.327Z,100.00
2022-11-14T19:03:56.418Z,100.00
2022-11-14T19:06:23.810Z,100.00
2022-11-14T19:08:50.719Z,100.00
2022-11-14T19:11:37.083Z,100.00
2022-11-14T19:14:06.286Z,100.00
2022-11-14T19:16:34.476Z,100.00
2022-11-14T19:19:01.790Z,100.00
2022-11-14T19:21:31.109Z,100.00
2022-11-14T19:23:59.593Z,100.00
2022-11-14T19:26:27.345Z,100.00
2022-11-14T19:28:54.598Z,100.00
2022-11-14T19:31:22.910Z,100.00
2022-11-14T19:33:49.919Z,100.00
2022-11-14T19:36:44.882Z,100.00
2022-11-14T19:39:07.835Z,100.00
2022-11-14T19:41:34.860Z,100.00
2022-11-14T19:44:02.955Z,100.00
2022-11-14T19:46:30.470Z,100.00
2022-11-14T19:48:58.746Z,100.00
2022-11-14T19:51:27.174Z,100.00
2022-11-14T19:53:55.256Z,100.00
2022-11-14T19:56:23.426Z,100.00
2022-11-14T19:58:51.461Z,100.00
2022-11-14T20:01:21.074Z,100.00
2022-11-14T20:03:52.440Z,100.00
2022-11-14T20:06:23.440Z,100.00
2022-11-14T20:08:50.995Z,100.00
2022-11-14T20:11:18.903Z,100.00
2022-11-14T20:13:46.151Z,100.00
2022-11-14T20:16:16.313Z,100.00
2022-11-14T20:18:50.488Z,100.00
2022-11-14T20:21:22.860Z,100.00
2022-11-14T20:23:50.043Z,100.00
2022-11-14T20:26:18.036Z,100.00
2022-11-14T20:28:46.612Z,100.00
2022-11-14T20:31:16.499Z,100.00
2022-11-14T20:33:46.398Z,100.00
2022-11-14T20:36:15.707Z,100.00
2022-11-14T20:38:42.552Z,100.00
2022-11-14T20:41:10.054Z,100.00
2022-11-14T20:43:37.063Z,100.00
2022-11-14T20:46:19.331Z,100.00
2022-11-14T20:48:47.137Z,100.00
2022-11-14T20:51:20.001Z,100.00
2022-11-14T20:53:47.530Z,100.00
2022-11-14T20:56:15.171Z,100.00
2022-11-14T20:58:47.012Z,100.00
2022-11-14T21:01:15.181Z,100.00
2022-11-14T21:03:42.411Z,100.00
2022-11-14T21:06:13.985Z,100.00
2022-11-14T21:08:41.747Z,100.00
2022-11-14T21:11:13.501Z,100.00
2022-11-14T21:13:59.240Z,100.00
2022-11-14T21:16:34.199Z,100.00
2022-11-14T21:19:01.481Z,100.00
2022-11-14T21:21:30.570Z,100.00
2022-11-14T21:23:57.562Z,100.00
2022-11-14T21:26:30.410Z,100.00
2022-11-14T21:29:09.793Z,100.00
2022-11-14T21:31:39.045Z,100.00
2022-11-14T21:34:08.157Z,100.00
2022-11-14T21:36:44.966Z,100.00
2022-11-14T21:39:16.405Z,100.00
2022-11-14T21:41:45.260Z,100.00
2022-11-14T21:44:14.511Z,100.00
2022-11-14T21:46:42.088Z,100.00
2022-11-14T21:49:09.877Z,100.00
2022-11-14T21:51:36.929Z,100.00
2022-11-14T21:54:05.069Z,100.00
2022-11-14T21:56:34.074Z,100.00
2022-11-14T21:59:28.493Z,100.00
2022-11-14T22:02:13.885Z,100.00
2022-11-14T22:04:40.766Z,100.00
2022-11-14T22:07:08.602Z,100.00
2022-11-14T22:09:38.690Z,100.00
2022-11-14T22:12:08.299Z,100.00
2022-11-14T22:14:35.055Z,100.00
2022-11-14T22:17:02.068Z,100.00
2022-11-14T22:19:28.778Z,100.00
2022-11-14T22:21:55.859Z,100.00
2022-11-14T22:24:23.682Z,100.00
2022-11-14T22:26:50.696Z,100.00
2022-11-14T22:29:17.495Z,100.00
2022-11-14T22:31:44.608Z,100.00
2022-11-14T22:34:12.090Z,100.00
2022-11-14T22:36:39.111Z,100.00
2022-11-14T22:39:05.950Z,100.00
2022-11-14T22:41:33.953Z,100.00
2022-11-14T22:44:02.091Z,100.00
2022-11-14T22:46:29.656Z,100.00
2022-11-14T22:48:56.924Z,100.00
2022-11-14T22:51:28.068Z,100.00
2022-11-14T22:53:56.788Z,100.00
2022-11-14T22:56:27.062Z,100.00
2022-11-14T22:58:54.118Z,100.00
2022-11-14T23:01:23.809Z,100.00
2022-11-14T23:04:02.537Z,100.00
2022-11-14T23:06:31.619Z,100.00
2022-11-14T23:09:01.876Z,100.00
2022-11-14T23:11:30.891Z,100.00
2022-11-14T23:13:59.451Z,100.00
2022-11-14T23:16:34.194Z,100.00
2022-11-14T23:19:03.634Z,100.00
2022-11-14T23:21:36.571Z,100.00
2022-11-14T23:24:12.632Z,100.00
2022-11-14T23:26:39.652Z,100.00
2022-11-14T23:29:06.559Z,100.00
2022-11-14T23:31:33.575Z,100.00
2022-11-14T23:34:00.326Z,100.00
2022-11-14T23:36:27.372Z,100.00
2022-11-14T23:38:54.304Z,100.00
2022-11-14T23:41:25.852Z,100.00
2022-11-14T23:43:52.830Z,100.00
2022-11-14T23:46:19.957Z,100.00
2022-11-14T23:48:46.757Z,100.00
2022-11-14T23:51:13.860Z,100.00
2022-11-14T23:53:41.824Z,100.00
2022-11-14T23:56:11.983Z,100.00
2022-11-14T23:58:38.740Z,100.00
